createdAt,value
2018-09-08T00:01:47.250Z,17.50
2018-09-08T00:04:17.443Z,17.40
2018-09-08T00:06:51.131Z,17.40
2018-09-08T00:09:20.815Z,17.30
2018-09-08T00:11:50.920Z,17.30
2018-09-08T00:14:20.509Z,17.30
2018-09-08T00:16:55.286Z,17.40
2018-09-08T00:19:29.982Z,17.30
2018-09-08T00:22:04.876Z,17.30
2018-09-08T00:24:40.092Z,17.30
2018-09-08T00:27:08.755Z,17.30
2018-09-08T00:29:49.160Z,17.30
2018-09-08T00:32:20.730Z,17.30
2018-09-08T00:34:50.423Z,17.30
2018-09-08T00:37:20.071Z,17.20
2018-09-08T00:39:52.081Z,17.20
2018-09-08T00:42:21.782Z,17.20
2018-09-08T00:44:51.495Z,17.20
2018-09-08T00:47:21.183Z,17.10
2018-09-08T00:49:50.773Z,17.10
2018-09-08T00:52:20.380Z,17.10
2018-09-08T00:54:49.990Z,17.10
2018-09-08T00:57:20.087Z,17.10
2018-09-08T00:59:49.733Z,17.00
2018-09-08T01:02:19.732Z,17.00
2018-09-08T01:04:49.351Z,16.90
2018-09-08T01:07:24.796Z,16.90
2018-09-08T01:09:54.458Z,16.90
2018-09-08T01:12:24.078Z,16.90
2018-09-08T01:14:53.894Z,16.80
2018-09-08T01:17:23.914Z,16.80
2018-09-08T01:19:53.545Z,16.80
2018-09-08T01:22:23.222Z,16.70
2018-09-08T01:24:52.817Z,16.60
2018-09-08T01:27:22.459Z,16.50
2018-09-08T01:29:52.058Z,16.40
2018-09-08T01:32:21.725Z,16.40
2018-09-08T01:34:51.319Z,16.40
2018-09-08T01:37:21.442Z,16.40
2018-09-08T01:39:51.013Z,16.30
2018-09-08T01:42:21.220Z,16.30
2018-09-08T01:44:50.938Z,16.30
2018-09-08T01:47:20.929Z,16.10
2018-09-08T01:49:50.591Z,16.10
2018-09-08T01:52:20.538Z,16.10
2018-09-08T01:54:50.275Z,15.90
2018-09-08T01:57:20.459Z,15.90
2018-09-08T01:59:50.112Z,15.90
2018-09-08T02:02:20.315Z,15.90
2018-09-08T02:04:50.555Z,15.80
2018-09-08T02:07:20.512Z,15.70
2018-09-08T02:09:50.475Z,15.70
2018-09-08T02:12:20.953Z,15.60
2018-09-08T02:14:50.564Z,15.50
2018-09-08T02:17:20.494Z,15.50
2018-09-08T02:19:50.891Z,15.40
2018-09-08T02:22:20.768Z,15.40
2018-09-08T02:24:51.147Z,15.40
2018-09-08T02:27:21.212Z,15.20
2018-09-08T02:29:50.825Z,15.20
2018-09-08T02:32:20.590Z,15.20
2018-09-08T02:34:50.224Z,15.10
2018-09-08T02:37:19.862Z,15.10
2018-09-08T02:39:49.485Z,15.00
2018-09-08T02:42:19.133Z,15.00
2018-09-08T02:44:48.763Z,15.00
2018-09-08T02:47:18.362Z,14.90
2018-09-08T02:50:04.923Z,14.80
2018-09-08T02:52:32.757Z,14.70
2018-09-08T02:55:00.580Z,14.70
2018-09-08T02:57:28.479Z,14.60
2018-09-08T02:59:56.338Z,14.60
2018-09-08T03:02:24.695Z,14.60
2018-09-08T03:04:52.590Z,14.50
2018-09-08T03:07:20.431Z,14.50
2018-09-08T03:09:48.260Z,14.40
2018-09-08T03:12:16.117Z,14.40
2018-09-08T03:14:44.008Z,14.40
2018-09-08T03:17:11.851Z,14.40
2018-09-08T03:19:39.705Z,14.30
2018-09-08T03:22:07.609Z,14.30
2018-09-08T03:24:35.458Z,14.30
2018-09-08T03:27:03.357Z,14.30
2018-09-08T03:29:31.252Z,14.30
2018-09-08T03:31:59.084Z,14.30
2018-09-08T03:34:26.989Z,14.40
2018-09-08T03:36:54.877Z,14.40
2018-09-08T03:39:22.755Z,14.40
2018-09-08T03:41:50.648Z,14.30
2018-09-08T03:44:18.514Z,14.30
2018-09-08T03:46:46.347Z,14.20
2018-09-08T03:49:14.332Z,14.10
2018-09-08T03:51:42.551Z,14.00
2018-09-08T03:54:10.442Z,13.90
2018-09-08T03:56:38.321Z,13.80
2018-09-08T03:59:06.281Z,13.80
2018-09-08T04:01:34.064Z,13.80
2018-09-08T04:04:04.237Z,13.80
2018-09-08T04:06:33.868Z,13.70
2018-09-08T04:09:03.633Z,13.70
2018-09-08T04:11:33.267Z,13.60
2018-09-08T04:14:03.306Z,13.50
2018-09-08T04:16:33.560Z,13.50
2018-09-08T04:19:03.345Z,13.40
2018-09-08T04:21:33.119Z,13.40
2018-09-08T04:24:02.918Z,13.30
2018-09-08T04:26:32.592Z,13.30
2018-09-08T04:29:02.253Z,13.20
2018-09-08T04:31:31.852Z,13.30
2018-09-08T04:34:01.510Z,13.30
2018-09-08T04:36:31.250Z,13.30
2018-09-08T04:39:00.949Z,13.30
2018-09-08T04:41:31.520Z,13.20
2018-09-08T04:44:01.151Z,13.20
2018-09-08T04:46:31.497Z,13.20
2018-09-08T04:49:01.273Z,13.10
2018-09-08T04:51:31.175Z,13.10
2018-09-08T04:54:00.838Z,13.10
2018-09-08T04:56:30.539Z,13.10
2018-09-08T04:59:00.295Z,13.10
2018-09-08T05:01:29.878Z,13.00
2018-09-08T05:03:59.538Z,13.00
2018-09-08T05:06:29.262Z,13.00
2018-09-08T05:08:58.998Z,13.00
2018-09-08T05:11:28.841Z,13.00
2018-09-08T05:13:58.561Z,13.10
2018-09-08T05:16:28.545Z,13.10
2018-09-08T05:18:58.147Z,13.10
2018-09-08T05:21:28.502Z,13.00
2018-09-08T05:23:58.160Z,13.00
2018-09-08T05:26:28.719Z,13.00
2018-09-08T05:28:58.419Z,13.10
2018-09-08T05:31:29.308Z,13.20
2018-09-08T05:34:01.929Z,13.30
2018-09-08T05:36:31.980Z,13.50
2018-09-08T05:39:01.718Z,13.50
2018-09-08T05:41:41.141Z,13.60
2018-09-08T05:44:13.066Z,13.70
2018-09-08T05:46:42.773Z,13.70
2018-09-08T05:49:13.882Z,13.80
2018-09-08T05:51:44.290Z,13.80
2018-09-08T05:54:13.975Z,13.80
2018-09-08T05:56:52.416Z,13.80
2018-09-08T05:59:32.601Z,13.80
2018-09-08T06:02:10.122Z,13.80
2018-09-08T06:04:39.927Z,13.80
2018-09-08T06:07:10.474Z,13.80
2018-09-08T06:09:40.860Z,13.90
2018-09-08T06:12:10.497Z,13.80
2018-09-08T06:14:40.166Z,13.80
2018-09-08T06:17:09.790Z,13.90
2018-09-08T06:19:39.407Z,13.90
2018-09-08T06:22:09.304Z,14.00
2018-09-08T06:24:39.665Z,14.10
2018-09-08T06:27:09.274Z,14.30
2018-09-08T06:29:38.844Z,14.50
2018-09-08T06:32:08.419Z,14.60
2018-09-08T06:34:38.148Z,14.80
2018-09-08T06:37:07.915Z,14.80
2018-09-08T06:39:37.811Z,14.80
2018-09-08T06:42:07.586Z,14.90
2018-09-08T06:44:37.322Z,14.90
2018-09-08T06:47:06.981Z,14.90
2018-09-08T06:49:36.639Z,15.00
2018-09-08T06:52:06.321Z,15.10
2018-09-08T06:54:35.982Z,15.20
2018-09-08T06:57:05.807Z,15.30
2018-09-08T06:59:35.968Z,15.50
2018-09-08T07:02:05.808Z,15.70
2018-09-08T07:04:35.557Z,15.90
2018-09-08T07:07:10.567Z,15.80
2018-09-08T07:09:42.820Z,15.80
2018-09-08T07:12:12.612Z,16.00
2018-09-08T07:14:42.372Z,16.10
2018-09-08T07:17:12.057Z,16.10
2018-09-08T07:19:41.718Z,16.10
2018-09-08T07:22:11.952Z,16.30
2018-09-08T07:24:43.723Z,16.30
2018-09-08T07:27:13.418Z,16.20
2018-09-08T07:29:43.120Z,16.20
2018-09-08T07:32:12.773Z,16.30
2018-09-08T07:34:42.376Z,16.30
2018-09-08T07:37:13.250Z,16.50
2018-09-08T07:39:43.647Z,16.50
2018-09-08T07:42:13.767Z,16.40
2018-09-08T07:44:43.538Z,16.50
2018-09-08T07:47:13.835Z,16.80
2018-09-08T07:49:43.482Z,17.20
2018-09-08T07:52:13.520Z,17.20
2018-09-08T07:54:43.521Z,17.20
2018-09-08T07:57:13.159Z,17.30
2018-09-08T07:59:42.879Z,17.40
2018-09-08T08:02:12.565Z,17.50
2018-09-08T08:04:42.240Z,17.50
2018-09-08T08:07:15.046Z,17.60
2018-09-08T08:09:46.376Z,17.50
2018-09-08T08:12:16.100Z,17.30
2018-09-08T08:14:45.807Z,17.30
2018-09-08T08:17:15.458Z,17.40
2018-09-08T08:19:45.069Z,17.20
2018-09-08T08:22:14.801Z,17.30
2018-09-08T08:24:44.924Z,17.50
2018-09-08T08:27:14.596Z,17.70
2018-09-08T08:29:44.253Z,17.90
2018-09-08T08:32:13.940Z,17.80
2018-09-08T08:34:43.817Z,17.90
2018-09-08T08:37:13.982Z,18.00
2018-09-08T08:39:44.451Z,18.10
2018-09-08T08:42:17.582Z,17.90
2018-09-08T08:44:47.578Z,17.80
2018-09-08T08:47:17.419Z,17.80
2018-09-08T08:50:00.602Z,17.80
2018-09-08T08:52:47.135Z,17.80
2018-09-08T08:55:15.008Z,17.80
2018-09-08T08:57:44.761Z,17.60
2018-09-08T09:00:14.431Z,17.60
2018-09-08T09:02:44.197Z,17.70
2018-09-08T09:05:13.857Z,18.00
2018-09-08T09:07:43.529Z,18.00
2018-09-08T09:10:13.741Z,18.00
2018-09-08T09:12:43.843Z,18.00
2018-09-08T09:15:13.798Z,18.20
2018-09-08T09:17:43.179Z,18.30
2018-09-08T09:20:29.655Z,18.20
2018-09-08T09:23:16.306Z,18.30
2018-09-08T09:25:45.735Z,18.20
2018-09-08T09:28:15.660Z,18.00
2018-09-08T09:30:46.061Z,18.00
2018-09-08T09:33:15.679Z,18.10
2018-09-08T09:35:45.392Z,18.20
2018-09-08T09:38:15.059Z,18.20
2018-09-08T09:40:44.681Z,18.10
2018-09-08T09:43:14.684Z,18.30
2018-09-08T09:45:45.088Z,18.60
2018-09-08T09:48:14.696Z,18.60
2018-09-08T09:50:44.310Z,18.70
2018-09-08T09:53:14.104Z,18.80
2018-09-08T09:55:43.707Z,18.90
2018-09-08T09:58:13.943Z,18.90
2018-09-08T10:00:49.972Z,18.90
2018-09-08T10:03:19.595Z,19.10
2018-09-08T10:05:49.219Z,19.10
2018-09-08T10:08:18.842Z,19.30
2018-09-08T10:10:48.536Z,19.50
2018-09-08T10:13:18.179Z,19.50
2018-09-08T10:15:47.922Z,19.40
2018-09-08T10:18:17.633Z,19.40
2018-09-08T10:20:47.321Z,19.50
2018-09-08T10:23:17.028Z,19.70
2018-09-08T10:25:46.656Z,20.00
2018-09-08T10:28:16.513Z,20.10
2018-09-08T10:30:46.935Z,20.00
2018-09-08T10:33:16.664Z,19.90
2018-09-08T10:35:46.347Z,19.90
2018-09-08T10:38:15.991Z,19.90
2018-09-08T10:40:45.744Z,19.70
2018-09-08T10:43:15.732Z,19.70
2018-09-08T10:45:46.250Z,19.70
2018-09-08T10:48:15.949Z,19.80
2018-09-08T10:50:45.705Z,20.00
2018-09-08T10:53:15.357Z,20.20
2018-09-08T10:55:45.551Z,20.40
2018-09-08T10:58:15.533Z,20.20
2018-09-08T11:00:46.304Z,20.40
2018-09-08T11:03:15.963Z,20.50
2018-09-08T11:05:46.172Z,20.60
2018-09-08T11:08:15.994Z,20.60
2018-09-08T11:10:46.395Z,20.60
2018-09-08T11:13:16.274Z,20.20
2018-09-08T11:15:46.499Z,20.20
2018-09-08T11:18:16.716Z,20.40
2018-09-08T11:20:47.148Z,20.70
2018-09-08T11:23:16.802Z,20.70
2018-09-08T11:25:47.412Z,20.60
2018-09-08T11:28:17.132Z,20.70
2018-09-08T11:30:47.224Z,20.70
2018-09-08T11:33:16.921Z,20.70
2018-09-08T11:35:47.500Z,20.70
2018-09-08T11:38:17.324Z,20.80
2018-09-08T11:40:47.698Z,20.50
2018-09-08T11:43:17.350Z,20.80
2018-09-08T11:45:47.668Z,21.10
2018-09-08T11:48:17.396Z,21.10
2018-09-08T11:50:47.877Z,20.90
2018-09-08T11:53:17.516Z,20.70
2018-09-08T11:55:47.838Z,21.10
2018-09-08T11:58:17.515Z,21.40
2018-09-08T12:00:48.116Z,21.60
2018-09-08T12:03:17.783Z,21.70
2018-09-08T12:05:48.131Z,21.80
2018-09-08T12:08:18.416Z,21.40
2018-09-08T12:10:48.817Z,21.30
2018-09-08T12:13:18.480Z,21.40
2018-09-08T12:15:48.978Z,21.50
2018-09-08T12:18:18.667Z,21.60
2018-09-08T12:20:49.087Z,21.60
2018-09-08T12:23:18.762Z,21.90
2018-09-08T12:25:49.139Z,22.10
2018-09-08T12:28:18.889Z,22.40
2018-09-08T12:30:49.453Z,22.60
2018-09-08T12:33:19.091Z,22.60
2018-09-08T12:35:49.357Z,22.20
2018-09-08T12:38:19.120Z,22.40
2018-09-08T12:40:49.336Z,22.60
2018-09-08T12:43:19.099Z,22.70
2018-09-08T12:45:49.373Z,22.50
2018-09-08T12:48:19.090Z,22.20
2018-09-08T12:50:49.520Z,22.50
2018-09-08T12:53:19.391Z,22.60
2018-09-08T12:55:49.680Z,22.70
2018-09-08T12:58:19.404Z,23.00
2018-09-08T13:00:50.286Z,23.10
2018-09-08T13:03:20.269Z,23.50
2018-09-08T13:05:50.963Z,23.90
2018-09-08T13:08:20.645Z,24.00
2018-09-08T13:10:50.813Z,24.00
2018-09-08T13:13:20.463Z,24.30
2018-09-08T13:15:50.777Z,24.20
2018-09-08T13:18:20.426Z,23.90
2018-09-08T13:20:51.037Z,23.00
2018-09-08T13:23:20.949Z,23.00
2018-09-08T13:25:51.134Z,23.40
2018-09-08T13:28:20.775Z,24.00
2018-09-08T13:30:51.558Z,24.90
2018-09-08T13:33:21.211Z,25.30
2018-09-08T13:35:51.432Z,25.20
2018-09-08T13:38:21.067Z,25.20
2018-09-08T13:40:51.034Z,25.00
2018-09-08T13:43:20.767Z,24.70
2018-09-08T13:45:50.721Z,24.80
2018-09-08T13:48:20.399Z,24.80
2018-09-08T13:50:50.323Z,25.10
2018-09-08T13:53:20.676Z,24.50
2018-09-08T13:55:50.523Z,23.90
2018-09-08T13:58:20.149Z,23.40
2018-09-08T14:00:50.062Z,23.70
2018-09-08T14:03:19.839Z,24.00
2018-09-08T14:05:49.563Z,24.20
2018-09-08T14:08:19.467Z,24.70
2018-09-08T14:10:49.138Z,25.20
2018-09-08T14:13:18.845Z,25.80
2018-09-08T14:15:48.584Z,26.10
2018-09-08T14:18:18.316Z,26.40
2018-09-08T14:20:47.975Z,26.50
2018-09-08T14:23:17.829Z,26.60
2018-09-08T14:25:47.525Z,25.60
2018-09-08T14:28:17.237Z,25.10
2018-09-08T14:30:46.866Z,24.90
2018-09-08T14:33:16.516Z,24.60
2018-09-08T14:35:46.383Z,24.30
2018-09-08T14:38:16.039Z,24.20
2018-09-08T14:40:45.847Z,23.40
2018-09-08T14:43:15.889Z,23.60
2018-09-08T14:45:45.575Z,24.20
2018-09-08T14:48:15.497Z,25.10
2018-09-08T14:50:45.142Z,25.50
2018-09-08T14:53:14.790Z,25.50
2018-09-08T14:55:44.513Z,25.70
2018-09-08T14:58:15.213Z,26.10
2018-09-08T15:00:44.930Z,26.40
2018-09-08T15:03:14.611Z,26.40
2018-09-08T15:05:45.102Z,26.20
2018-09-08T15:08:14.850Z,25.90
2018-09-08T15:10:52.267Z,25.10
2018-09-08T15:13:24.017Z,24.70
2018-09-08T15:15:53.690Z,24.50
2018-09-08T15:18:23.418Z,24.40
2018-09-08T15:20:53.048Z,24.10
2018-09-08T15:23:22.822Z,24.10
2018-09-08T15:25:52.560Z,23.90
2018-09-08T15:28:22.408Z,23.60
2018-09-08T15:30:52.044Z,23.70
2018-09-08T15:33:21.698Z,23.90
2018-09-08T15:35:51.622Z,24.40
2018-09-08T15:38:21.411Z,24.60
2018-09-08T15:40:51.324Z,24.50
2018-09-08T15:43:21.062Z,24.00
2018-09-08T15:45:50.807Z,23.50
2018-09-08T15:48:20.453Z,23.30
2018-09-08T15:50:50.208Z,23.00
2018-09-08T15:53:19.860Z,22.80
2018-09-08T15:55:49.766Z,22.70
2018-09-08T15:58:19.508Z,22.40
2018-09-08T16:00:49.040Z,22.30
2018-09-08T16:03:18.733Z,22.00
2018-09-08T16:05:48.452Z,21.80
2018-09-08T16:08:18.190Z,21.60
2018-09-08T16:10:47.935Z,21.50
2018-09-08T16:13:17.755Z,21.50
2018-09-08T16:15:47.502Z,21.40
2018-09-08T16:18:17.296Z,21.20
2018-09-08T16:20:47.055Z,21.20
2018-09-08T16:23:17.323Z,21.00
2018-09-08T16:25:47.485Z,20.90
2018-09-08T16:28:18.330Z,20.80
2018-09-08T16:30:48.544Z,20.80
2018-09-08T16:33:18.257Z,20.70
2018-09-08T16:35:49.490Z,20.70
2018-09-08T16:38:20.309Z,20.60
2018-09-08T16:40:50.061Z,20.50
2018-09-08T16:43:21.116Z,20.50
2018-09-08T16:45:53.532Z,20.50
2018-09-08T16:48:25.551Z,20.40
2018-09-08T16:50:56.262Z,20.40
2018-09-08T16:53:26.485Z,20.30
2018-09-08T16:55:56.303Z,20.20
2018-09-08T16:58:26.748Z,20.10
2018-09-08T17:00:56.894Z,20.00
2018-09-08T17:03:26.946Z,19.90
2018-09-08T17:05:56.870Z,19.80
2018-09-08T17:08:26.514Z,19.80
2018-09-08T17:10:56.240Z,19.60
2018-09-08T17:13:30.086Z,19.60
2018-09-08T17:16:02.111Z,19.40
2018-09-08T17:18:32.179Z,19.30
2018-09-08T17:21:04.100Z,19.10
2018-09-08T17:23:39.369Z,19.00
2018-09-08T17:26:09.191Z,18.90
2018-09-08T17:28:39.149Z,18.70
2018-09-08T17:31:08.927Z,18.60
2018-09-08T17:33:39.414Z,18.50
2018-09-08T17:36:11.192Z,18.40
2018-09-08T17:38:42.062Z,18.30
2018-09-08T17:41:12.988Z,18.20
2018-09-08T17:43:42.829Z,18.00
2018-09-08T17:46:13.035Z,17.90
2018-09-08T17:48:43.448Z,17.80
2018-09-08T17:51:13.748Z,17.70
2018-09-08T17:53:43.521Z,17.70
2018-09-08T17:56:13.232Z,17.50
2018-09-08T17:58:43.887Z,17.40
2018-09-08T18:01:16.110Z,17.20
2018-09-08T18:03:47.132Z,17.10
2018-09-08T18:06:16.954Z,16.90
2018-09-08T18:08:46.725Z,16.80
2018-09-08T18:11:17.474Z,16.70
2018-09-08T18:13:47.171Z,16.60
2018-09-08T18:16:18.575Z,16.40
2018-09-08T18:18:49.559Z,16.30
2018-09-08T18:21:20.109Z,16.10
2018-09-08T18:23:51.044Z,16.20
2018-09-08T18:26:21.949Z,16.00
2018-09-08T18:28:52.257Z,15.90
2018-09-08T18:31:22.343Z,15.90
2018-09-08T18:33:52.452Z,15.80
2018-09-08T18:36:26.946Z,15.80
2018-09-08T18:38:57.763Z,15.80
2018-09-08T18:41:28.502Z,15.70
2018-09-08T18:44:00.337Z,15.60
2018-09-08T18:46:30.770Z,15.50
2018-09-08T18:49:00.942Z,15.30
2018-09-08T18:51:30.912Z,15.30
2018-09-08T18:54:00.675Z,15.10
2018-09-08T18:56:30.746Z,15.10
2018-09-08T18:59:01.463Z,15.00
2018-09-08T19:01:33.329Z,15.00
2018-09-08T19:04:04.548Z,14.90
2018-09-08T19:06:34.526Z,14.80
2018-09-08T19:09:08.482Z,14.80
2018-09-08T19:11:39.675Z,14.70
2018-09-08T19:16:19.471Z,14.60
2018-09-08T19:18:49.264Z,14.50
2018-09-08T19:21:22.379Z,14.50
2018-09-08T19:23:59.056Z,14.50
2018-09-08T19:26:31.242Z,14.40
2018-09-08T19:29:07.365Z,14.50
2018-09-08T19:31:38.215Z,14.40
2018-09-08T19:34:08.954Z,14.30
2018-09-08T19:36:40.742Z,14.30
2018-09-08T19:39:12.438Z,14.30
2018-09-08T19:41:42.085Z,14.20
2018-09-08T19:44:11.785Z,14.10
2018-09-08T19:46:47.502Z,14.10
2018-09-08T19:49:17.852Z,14.00
2018-09-08T19:51:48.946Z,13.80
2018-09-08T19:54:19.466Z,13.80
2018-09-08T19:56:54.696Z,13.80
2018-09-08T19:59:25.078Z,13.80
2018-09-08T20:01:57.441Z,13.70
2018-09-08T20:04:27.195Z,13.70
2018-09-08T20:06:56.831Z,13.60
2018-09-08T20:09:29.121Z,13.60
2018-09-08T20:11:59.269Z,13.50
2018-09-08T20:14:28.900Z,13.40
2018-09-08T20:17:02.864Z,13.30
2018-09-08T20:19:32.680Z,13.30
2018-09-08T20:24:45.093Z,13.30
2018-09-08T20:29:57.488Z,13.40
2018-09-08T20:32:28.461Z,13.40
2018-09-08T20:35:00.608Z,13.40
2018-09-08T20:37:30.992Z,13.40
2018-09-08T20:40:00.918Z,13.40
2018-09-08T20:42:30.817Z,13.40
2018-09-08T20:45:00.564Z,13.40
2018-09-08T20:50:10.617Z,13.30
2018-09-08T20:52:40.396Z,13.30
2018-09-08T20:55:10.270Z,13.20
2018-09-08T20:57:42.933Z,13.20
2018-09-08T21:00:14.694Z,13.20
2018-09-08T21:02:44.397Z,13.10
2018-09-08T21:05:14.129Z,13.10
2018-09-08T21:10:46.048Z,12.90
2018-09-08T21:13:16.184Z,13.00
2018-09-08T21:15:47.993Z,13.00
2018-09-08T21:18:18.293Z,12.90
2018-09-08T21:20:48.014Z,13.00
2018-09-08T21:23:17.673Z,13.00
2018-09-08T21:25:47.422Z,13.10
2018-09-08T21:28:17.121Z,13.10
2018-09-08T21:30:46.823Z,13.10
2018-09-08T21:33:16.497Z,13.10
2018-09-08T21:35:46.308Z,13.10
2018-09-08T21:38:15.985Z,13.00
2018-09-08T21:40:45.756Z,13.00
2018-09-08T21:43:15.868Z,12.90
2018-09-08T21:45:45.631Z,12.70
2018-09-08T21:48:15.349Z,12.60
2018-09-08T21:50:44.998Z,12.60
2018-09-08T21:53:14.697Z,12.60
2018-09-08T21:55:44.354Z,12.70
2018-09-08T21:58:14.511Z,12.70
2018-09-08T22:00:48.784Z,12.70
2018-09-08T22:03:18.550Z,12.70
2018-09-08T22:05:48.193Z,12.60
2018-09-08T22:08:18.144Z,12.60
2018-09-08T22:10:47.963Z,12.50
2018-09-08T22:13:17.706Z,12.60
2018-09-08T22:15:47.406Z,12.80
2018-09-08T22:18:17.000Z,12.80
2018-09-08T22:20:46.634Z,12.90
2018-09-08T22:23:16.248Z,13.00
2018-09-08T22:25:45.879Z,13.00
2018-09-08T22:28:15.999Z,13.10
2018-09-08T22:30:46.053Z,13.20
2018-09-08T22:33:15.775Z,13.20
2018-09-08T22:35:45.459Z,13.20
2018-09-08T22:38:15.440Z,13.20
2018-09-08T22:40:45.276Z,13.20
2018-09-08T22:43:15.447Z,13.20
2018-09-08T22:45:45.216Z,13.20
2018-09-08T22:48:14.896Z,13.20
2018-09-08T22:50:44.582Z,13.30
2018-09-08T22:53:14.213Z,13.40
2018-09-08T22:55:43.886Z,13.40
2018-09-08T22:58:14.336Z,13.50
2018-09-08T23:00:44.835Z,13.50
2018-09-08T23:03:14.550Z,13.60
2018-09-08T23:05:44.201Z,13.60
2018-09-08T23:08:13.853Z,13.60
2018-09-08T23:10:43.640Z,13.70
2018-09-08T23:13:14.241Z,13.80
2018-09-08T23:15:44.848Z,13.80
2018-09-08T23:18:14.484Z,13.80
2018-09-08T23:20:44.151Z,13.90
2018-09-08T23:23:13.848Z,13.90
2018-09-08T23:25:43.577Z,13.90
2018-09-08T23:28:13.549Z,13.90
2018-09-08T23:30:44.002Z,13.90
2018-09-08T23:33:13.668Z,13.90
2018-09-08T23:35:43.399Z,13.90
2018-09-08T23:38:13.017Z,13.90
2018-09-08T23:40:42.662Z,13.90
2018-09-08T23:43:12.452Z,13.90
2018-09-08T23:45:43.412Z,13.90
2018-09-08T23:48:13.254Z,13.90
2018-09-08T23:50:42.891Z,13.90
2018-09-08T23:53:12.516Z,13.90
2018-09-08T23:55:42.444Z,13.90
2018-09-08T23:58:12.248Z,13.90
